Terminal Aerodrome Forecast
Issued by NWS New Orleans/Baton Rouge, LA

Home | Current Version | Previous Version | Text Only | Print | Product List | Glossary On
Versions: 1 2 3 4 5 6 7 8 9 10 11 12 13 14 15 16 17 18 19 20
000
FTUS44 KLIX 210541
TAFBTR
TAF
KBTR 210541Z 2106/2206 15005KT P6SM SCT015 BKN035
     FM210700 16006KT 3SM -SHRA BR BKN015
      TEMPO 2107/2110 24025G45KT 1/2SM +TSRA BKN012CB
     FM211200 21006KT P6SM OVC004
     FM211800 22011KT P6SM BKN025
     FM220000 21008KT P6SM BKN015=

USA.gov is the U.S. government's official web portal to all federal, state and local government web resources and services.